createdAt,value
2022-08-10T00:02:34.305Z,98647
2022-08-10T00:08:24.665Z,98641
2022-08-10T00:14:01.224Z,98641.9
2022-08-10T00:20:09.286Z,98633.4
2022-08-10T00:25:42.013Z,98621.7
2022-08-10T00:31:16.897Z,98622.2
2022-08-10T00:36:51.673Z,98618.6
2022-08-10T00:42:26.886Z,98612.5
2022-08-10T00:48:01.949Z,98605.4
2022-08-10T00:53:36.957Z,98607.9
2022-08-10T00:59:11.921Z,98610
2022-08-10T01:05:02.960Z,98611.1
2022-08-10T01:10:38.425Z,98605.8
2022-08-10T01:16:36.187Z,98609.4
2022-08-10T01:22:08.739Z,98615.3
2022-08-10T01:27:43.659Z,98612.1
2022-08-10T01:34:02.498Z,98605.8
2022-08-10T01:39:38.510Z,98611.4
2022-08-10T01:45:18.134Z,98612.2
2022-08-10T01:51:01.048Z,98605.3
2022-08-10T01:56:35.895Z,98604.6
2022-08-10T02:02:10.812Z,98606.2
2022-08-10T02:07:45.586Z,98602.8
2022-08-10T02:13:20.550Z,98600.4
2022-08-10T02:19:18.118Z,98598.8
2022-08-10T02:24:50.735Z,98601.1
2022-08-10T02:30:25.693Z,98602.3
2022-08-10T02:36:01.446Z,98599.1
2022-08-10T02:45:31.603Z,98597.7
2022-08-10T02:51:09.658Z,98594
2022-08-10T02:56:45.206Z,98596.2
2022-08-10T03:02:20.923Z,98598.1
2022-08-10T03:07:55.933Z,98596.3
2022-08-10T03:13:31.941Z,98598.2
2022-08-10T03:20:40.401Z,98594.8
2022-08-10T03:26:21.009Z,98593.1
2022-08-10T03:31:55.879Z,98593.9
2022-08-10T03:37:31.556Z,98587.2
2022-08-10T03:43:14.864Z,98580.1
2022-08-10T03:48:50.725Z,98580.6
2022-08-10T03:54:36.521Z,98575.8
2022-08-10T04:00:13.032Z,98577.1
2022-08-10T04:05:47.663Z,98577.4
2022-08-10T04:11:22.624Z,98584.2
2022-08-10T04:18:06.855Z,98577.4
2022-08-10T04:23:39.942Z,98575
2022-08-10T04:29:15.212Z,98576
2022-08-10T04:34:50.302Z,98579.9
2022-08-10T04:40:31.491Z,98583.8
2022-08-10T04:46:59.380Z,98585.1
2022-08-10T04:52:36.312Z,98588.5
2022-08-10T04:58:11.671Z,98592.2
2022-08-10T05:04:39.862Z,98601.4
2022-08-10T05:10:15.300Z,98600.7
2022-08-10T05:15:50.107Z,98604.8
2022-08-10T05:22:05.379Z,98609.4
2022-08-10T05:27:40.318Z,98612
2022-08-10T05:33:16.479Z,98614.4
2022-08-10T05:38:51.440Z,98611
2022-08-10T05:44:26.508Z,98614.4
2022-08-10T05:50:01.219Z,98617.6
2022-08-10T05:55:36.461Z,98612.5
2022-08-10T06:01:11.852Z,98617
2022-08-10T06:06:47.047Z,98623.8
2022-08-10T06:12:32.810Z,98623.6
2022-08-10T06:19:00.010Z,98619.7
2022-08-10T06:24:32.712Z,98622.3
2022-08-10T06:30:21.520Z,98627.1
2022-08-10T06:35:56.435Z,98624.2
2022-08-10T06:42:18.785Z,98627.2
2022-08-10T06:47:54.878Z,98628.3
2022-08-10T06:53:55.720Z,98629.6
2022-08-10T06:59:31.874Z,98629.5
2022-08-10T07:05:06.760Z,98616.4
2022-08-10T07:10:47.036Z,98606.3
2022-08-10T07:16:43.704Z,98600.5
2022-08-10T07:24:01.375Z,98601.2
2022-08-10T07:29:55.359Z,98602.3
2022-08-10T07:35:43.878Z,98606.5
2022-08-10T07:41:19.620Z,98606
2022-08-10T07:46:54.691Z,98601
2022-08-10T07:52:30.636Z,98602.3
2022-08-10T07:58:06.544Z,98603.4
2022-08-10T08:03:42.154Z,98600.8
2022-08-10T08:09:17.034Z,98591.6
2022-08-10T08:14:52.942Z,98582.9
2022-08-10T08:20:30.243Z,98578.3
2022-08-10T08:26:04.909Z,98578.5
2022-08-10T08:32:04.159Z,98580.1
2022-08-10T08:38:35.620Z,98581.8
2022-08-10T08:44:10.604Z,98581.8
2022-08-10T08:50:10.806Z,98582.9
2022-08-10T08:56:07.527Z,98588.2
2022-08-10T09:01:43.300Z,98586.7
2022-08-10T09:08:03.690Z,98581.7
2022-08-10T09:13:39.393Z,98577.7
2022-08-10T09:19:37.504Z,98580
2022-08-10T09:25:10.820Z,98579
2022-08-10T09:31:23.569Z,98583.5
2022-08-10T09:37:01.307Z,98580.7
2022-08-10T09:42:38.243Z,98580.1
2022-08-10T09:48:13.163Z,98580.3
2022-08-10T09:53:51.464Z,98577.7
2022-08-10T10:00:03.369Z,98574.1
2022-08-10T10:05:38.538Z,98570.3
2022-08-10T10:11:24.637Z,98569.5
2022-08-10T10:17:21.471Z,98562.1
2022-08-10T10:22:54.244Z,98559.9
2022-08-10T10:29:56.115Z,98557.6
2022-08-10T10:35:37.076Z,98553.8
2022-08-10T10:41:15.168Z,98560
2022-08-10T10:46:52.147Z,98557.6
2022-08-10T10:52:27.544Z,98557.3
2022-08-10T10:58:03.565Z,98554.7
2022-08-10T11:03:40.163Z,98558.8
2022-08-10T11:10:34.741Z,98552.3
2022-08-10T11:17:00.539Z,98542.2
2022-08-10T11:22:37.421Z,98537.9
2022-08-10T11:28:12.813Z,98529.9
2022-08-10T11:35:12.586Z,98527.9
2022-08-10T11:40:48.801Z,98521.6
2022-08-10T11:46:29.469Z,98515.1
2022-08-10T11:52:04.546Z,98508.1
2022-08-10T11:58:01.130Z,98499.8
2022-08-10T12:03:36.364Z,98490.3
2022-08-10T12:10:14.277Z,98479.6
2022-08-10T12:15:50.164Z,98478.4
2022-08-10T12:21:24.584Z,98477
2022-08-10T12:26:59.485Z,98473.4
2022-08-10T12:32:36.139Z,98467.3
2022-08-10T12:38:12.685Z,98463.5
2022-08-10T12:44:09.463Z,98466.2
2022-08-10T12:50:34.643Z,98464
2022-08-10T12:56:09.922Z,98445.8
2022-08-10T13:02:11.619Z,98449
2022-08-10T13:08:28.583Z,98440.9
2022-08-10T13:14:03.730Z,98427.6
2022-08-10T13:20:12.577Z,98424.3
2022-08-10T13:25:51.238Z,98421.7
2022-08-10T13:32:11.400Z,98420
2022-08-10T13:37:46.915Z,98407.9
2022-08-10T13:43:21.879Z,98404.6
2022-08-10T13:48:59.796Z,98394.2
2022-08-10T13:54:35.276Z,98384.4
2022-08-10T14:00:39.082Z,98386
2022-08-10T14:06:14.841Z,98375.4
2022-08-10T14:11:49.938Z,98367.9
2022-08-10T14:17:46.878Z,98372.4
2022-08-10T14:23:20.808Z,98371.3
2022-08-10T14:28:55.665Z,98361.9
2022-08-10T14:36:25.034Z,98355.6
2022-08-10T14:42:27.655Z,98340
2022-08-10T14:48:05.286Z,98339.8
2022-08-10T14:53:46.204Z,98329.5
2022-08-10T15:00:32.963Z,98329.5
2022-08-10T15:06:19.228Z,98321.5
2022-08-10T15:12:27.476Z,98326.2
2022-08-10T15:18:27.147Z,98318.6
2022-08-10T15:24:10.472Z,98316.2
2022-08-10T15:29:58.819Z,98313.3
2022-08-10T15:35:37.967Z,98309.1
2022-08-10T15:41:17.170Z,98309.2
2022-08-10T15:47:47.306Z,98301.7
2022-08-10T15:53:28.122Z,98298.7
2022-08-10T15:59:08.812Z,98292.9
2022-08-10T16:04:47.799Z,98293.5
2022-08-10T16:10:32.394Z,98297.4
2022-08-10T16:16:35.987Z,98299.9
2022-08-10T16:22:38.112Z,98300.5
2022-08-10T16:28:24.628Z,98299.5
2022-08-10T16:33:59.726Z,98303
2022-08-10T16:40:02.052Z,98298.4
2022-08-10T16:45:39.156Z,98294.9
2022-08-10T16:51:18.147Z,98287.3
2022-08-10T16:56:53.054Z,98282.6
2022-08-10T17:02:28.459Z,98280.3
2022-08-10T17:08:03.938Z,98279
2022-08-10T17:13:38.788Z,98272.8
2022-08-10T17:19:35.269Z,98274.4
2022-08-10T17:25:08.102Z,98278.5
2022-08-10T17:30:58.951Z,98281.5
2022-08-10T17:36:33.989Z,98283.7
2022-08-10T17:42:09.081Z,98280.2
2022-08-10T17:47:43.754Z,98284.8
2022-08-10T17:53:19.574Z,98283.9
2022-08-10T17:58:54.350Z,98292.6
2022-08-10T18:04:42.791Z,98290.8
2022-08-10T18:10:17.940Z,98288.5
2022-08-10T18:15:52.593Z,98284.5
2022-08-10T18:21:31.368Z,98283.4
2022-08-10T18:27:06.053Z,98272.5
2022-08-10T18:32:40.601Z,98272.9
2022-08-10T18:38:15.818Z,98288.7
2022-08-10T18:44:13.063Z,98294.8
2022-08-10T18:49:48.136Z,98296.6
2022-08-10T18:55:27.355Z,98298.8
2022-08-10T19:01:45.294Z,98299
2022-08-10T19:07:20.080Z,98301
2022-08-10T19:12:55.238Z,98306.2
2022-08-10T19:18:51.769Z,98321
2022-08-10T19:24:24.502Z,98317.3
2022-08-10T19:30:13.950Z,98319.1
2022-08-10T19:36:05.952Z,98329.5
2022-08-10T19:41:45.718Z,98331.5
2022-08-10T19:47:21.422Z,98339.9
2022-08-10T19:52:56.255Z,98345.3
2022-08-10T19:58:31.230Z,98346.7
2022-08-10T20:04:06.013Z,98350.1
2022-08-10T20:09:41.921Z,98364.9
2022-08-10T20:15:16.670Z,98363.2
2022-08-10T20:20:52.483Z,98372.8
2022-08-10T20:26:27.295Z,98365.5
2022-08-10T20:32:02.004Z,98361.8
2022-08-10T20:38:05.662Z,98364.7
2022-08-10T20:43:42.845Z,98366.2
2022-08-10T20:49:18.628Z,98362.5
2022-08-10T20:54:53.358Z,98352.6
2022-08-10T21:00:27.982Z,98345.5
2022-08-10T21:06:03.862Z,98342.5
2022-08-10T21:11:38.706Z,98343.2
2022-08-10T21:17:38.459Z,98335
2022-08-10T21:23:12.230Z,98330.8
2022-08-10T21:28:50.781Z,98334.4
2022-08-10T21:34:33.145Z,98336.6
2022-08-10T21:40:36.332Z,98338
2022-08-10T21:46:18.484Z,98330
2022-08-10T21:52:05.621Z,98321.9
2022-08-10T21:57:44.642Z,98317.7
2022-08-10T22:03:20.939Z,98317.9
2022-08-10T22:08:55.879Z,98322.1
2022-08-10T22:14:34.422Z,98325.5
2022-08-10T22:20:09.584Z,98328
2022-08-10T22:25:44.739Z,98333.6
2022-08-10T22:31:49.704Z,98341.9
2022-08-10T22:37:25.780Z,98350.5
2022-08-10T22:43:12.923Z,98350.5
2022-08-10T22:49:11.607Z,98353.4
2022-08-10T22:54:46.498Z,98357
2022-08-10T23:00:32.030Z,98359
2022-08-10T23:06:06.938Z,98369.2
2022-08-10T23:11:41.810Z,98372.5
2022-08-10T23:18:02.944Z,98375.5
2022-08-10T23:23:35.730Z,98384.6
2022-08-10T23:29:12.792Z,98387.5
2022-08-10T23:36:36.090Z,98393
2022-08-10T23:42:11.208Z,98381.1
2022-08-10T23:47:45.997Z,98380.5
2022-08-10T23:53:25.636Z,98376.5
2022-08-10T23:59:00.493Z,98371.4
